createdAt,value
2018-06-19T00:00:26.642Z,52.97
2018-06-19T00:02:56.157Z,52.77
2018-06-19T00:05:30.207Z,52.74
2018-06-19T00:08:01.668Z,52.65
2018-06-19T00:10:31.815Z,53.03
2018-06-19T00:13:01.291Z,53.22
2018-06-19T00:15:30.851Z,53.33
2018-06-19T00:18:06.250Z,53.79
2018-06-19T00:20:35.696Z,53.63
2018-06-19T00:23:05.364Z,53.53
2018-06-19T00:25:34.884Z,53.48
2018-06-19T00:28:04.454Z,53.52
2018-06-19T00:30:34.137Z,53.70
2018-06-19T00:33:03.697Z,53.72
2018-06-19T00:35:33.310Z,54.02
2018-06-19T00:38:02.908Z,54.37
2018-06-19T00:40:32.396Z,54.15
2018-06-19T00:43:01.768Z,54.85
2018-06-19T00:45:31.315Z,54.50
2018-06-19T00:48:00.871Z,54.54
2018-06-19T00:50:30.323Z,54.64
2018-06-19T00:53:00.316Z,54.85
2018-06-19T00:55:29.880Z,54.52
2018-06-19T00:57:59.379Z,54.32
2018-06-19T01:00:28.940Z,54.23
2018-06-19T01:02:58.458Z,53.68
2018-06-19T01:05:27.922Z,53.89
2018-06-19T01:07:57.427Z,53.75
2018-06-19T01:10:27.014Z,53.62
2018-06-19T01:12:56.461Z,53.64
2018-06-19T01:15:25.961Z,53.50
2018-06-19T01:17:55.484Z,53.58
2018-06-19T01:20:24.990Z,53.28
2018-06-19T01:22:54.435Z,53.63
2018-06-19T01:25:23.934Z,53.54
2018-06-19T01:27:53.387Z,53.68
2018-06-19T01:30:22.936Z,53.84
2018-06-19T01:32:52.369Z,53.62
2018-06-19T01:35:21.845Z,53.36
2018-06-19T01:37:51.784Z,53.35
2018-06-19T01:40:21.350Z,53.38
2018-06-19T01:42:50.861Z,53.27
2018-06-19T01:45:20.444Z,53.06
2018-06-19T01:47:49.994Z,53.12
2018-06-19T01:50:19.532Z,53.24
2018-06-19T01:52:48.942Z,52.99
2018-06-19T01:55:18.295Z,53.40
2018-06-19T01:57:47.827Z,53.27
2018-06-19T02:00:17.199Z,53.06
2018-06-19T02:02:46.668Z,53.29
2018-06-19T02:05:16.051Z,53.96
2018-06-19T02:07:45.565Z,54.63
2018-06-19T02:10:14.998Z,54.45
2018-06-19T02:12:44.449Z,54.88
2018-06-19T02:15:13.881Z,54.84
2018-06-19T02:17:43.315Z,55.48
2018-06-19T02:20:12.697Z,55.89
2018-06-19T02:22:42.128Z,56.92
2018-06-19T02:25:11.522Z,57.43
2018-06-19T02:27:40.873Z,57.72
2018-06-19T02:30:10.327Z,57.99
2018-06-19T02:32:39.762Z,58.40
2018-06-19T02:35:09.230Z,59.07
2018-06-19T02:37:38.746Z,59.55
2018-06-19T02:40:08.267Z,59.88
2018-06-19T02:42:37.760Z,60.03
2018-06-19T02:45:07.518Z,60.74
2018-06-19T02:47:37.305Z,61.04
2018-06-19T02:50:06.878Z,60.69
2018-06-19T02:52:36.645Z,60.79
2018-06-19T02:55:06.338Z,60.91
2018-06-19T02:57:46.330Z,60.68
2018-06-19T03:00:15.940Z,60.81
2018-06-19T03:02:45.655Z,60.58
2018-06-19T03:05:15.414Z,60.45
2018-06-19T03:07:45.196Z,60.14
2018-06-19T03:10:14.727Z,59.76
2018-06-19T03:12:44.342Z,60.09
2018-06-19T03:15:13.899Z,59.54
2018-06-19T03:17:43.688Z,59.20
2018-06-19T03:20:13.238Z,58.94
2018-06-19T03:22:42.811Z,58.72
2018-06-19T03:25:12.272Z,59.01
2018-06-19T03:27:41.764Z,58.94
2018-06-19T03:30:11.237Z,60.02
2018-06-19T03:32:40.601Z,60.95
2018-06-19T03:35:10.007Z,61.72
2018-06-19T03:37:39.381Z,61.36
2018-06-19T03:40:08.832Z,61.44
2018-06-19T03:42:38.343Z,61.73
2018-06-19T03:45:07.822Z,61.17
2018-06-19T03:47:37.298Z,61.72
2018-06-19T03:50:07.008Z,61.66
2018-06-19T03:52:36.681Z,61.96
2018-06-19T03:55:06.547Z,62.27
2018-06-19T03:57:36.131Z,62.22
2018-06-19T04:00:05.957Z,62.04
2018-06-19T04:02:35.416Z,61.57
2018-06-19T04:05:04.907Z,60.92
2018-06-19T04:07:34.303Z,60.23
2018-06-19T04:10:04.010Z,60.05
2018-06-19T04:12:33.419Z,59.45
2018-06-19T04:15:02.821Z,59.41
2018-06-19T04:17:32.269Z,59.11
2018-06-19T04:20:01.709Z,58.51
2018-06-19T04:22:31.275Z,58.86
2018-06-19T04:25:00.839Z,58.34
2018-06-19T04:27:30.377Z,58.32
2018-06-19T04:30:00.024Z,57.91
2018-06-19T04:32:29.764Z,57.72
2018-06-19T04:35:00.056Z,56.94
2018-06-19T04:37:29.688Z,57.34
2018-06-19T04:39:59.402Z,56.91
2018-06-19T04:42:29.026Z,56.46
2018-06-19T04:44:58.532Z,55.74
2018-06-19T04:47:27.942Z,55.57
2018-06-19T04:49:57.335Z,54.84
2018-06-19T04:52:26.779Z,54.63
2018-06-19T04:54:56.181Z,54.34
2018-06-19T04:57:25.657Z,54.04
2018-06-19T04:59:55.028Z,53.79
2018-06-19T05:02:24.453Z,53.08
2018-06-19T05:04:53.895Z,53.26
2018-06-19T05:07:23.351Z,52.95
2018-06-19T05:09:52.827Z,52.97
2018-06-19T05:12:22.240Z,53.42
2018-06-19T05:14:51.733Z,53.34
2018-06-19T05:17:21.144Z,53.34
2018-06-19T05:19:50.609Z,53.81
2018-06-19T05:22:19.972Z,53.09
2018-06-19T05:24:49.410Z,53.27
2018-06-19T05:27:18.812Z,52.39
2018-06-19T05:29:48.277Z,51.97
2018-06-19T05:32:17.716Z,51.84
2018-06-19T05:34:47.150Z,50.63
2018-06-19T05:37:16.625Z,50.63
2018-06-19T05:39:46.032Z,49.99
2018-06-19T05:42:15.499Z,49.86
2018-06-19T05:44:44.933Z,49.61
2018-06-19T05:47:14.357Z,48.69
2018-06-19T05:49:43.761Z,47.85
2018-06-19T05:52:13.243Z,40.10
2018-06-19T05:54:42.712Z,33.16
2018-06-19T05:57:12.158Z,33.31
2018-06-19T05:59:41.588Z,33.76
2018-06-19T06:02:10.952Z,32.10
2018-06-19T06:04:40.338Z,31.26
2018-06-19T06:07:09.711Z,28.48
2018-06-19T06:09:39.130Z,27.09
2018-06-19T06:12:08.521Z,26.81
2018-06-19T06:14:37.939Z,25.95
2018-06-19T06:17:07.397Z,26.64
2018-06-19T06:19:36.756Z,26.90
2018-06-19T06:22:06.297Z,26.12
2018-06-19T06:24:35.646Z,24.54
2018-06-19T06:27:05.888Z,23.72
2018-06-19T06:29:35.046Z,24.61
2018-06-19T06:32:04.473Z,24.97
2018-06-19T06:34:33.969Z,25.02
2018-06-19T06:37:03.533Z,26.47
2018-06-19T06:39:33.014Z,24.32
2018-06-19T06:42:02.492Z,24.05
2018-06-19T06:44:31.884Z,25.73
2018-06-19T06:47:01.267Z,27.20
2018-06-19T06:49:30.751Z,26.86
2018-06-19T06:52:00.200Z,25.89
2018-06-19T06:54:29.665Z,25.27
2018-06-19T06:57:00.874Z,26.77
2018-06-19T06:59:31.176Z,28.32
2018-06-19T07:02:00.608Z,32.01
2018-06-19T07:04:30.018Z,33.29
2018-06-19T07:06:59.484Z,33.98
2018-06-19T07:09:28.925Z,35.99
2018-06-19T07:11:58.394Z,36.25
2018-06-19T07:14:27.796Z,36.88
2018-06-19T07:16:57.240Z,35.66
2018-06-19T07:19:26.643Z,35.59
2018-06-19T07:21:56.026Z,36.20
2018-06-19T07:24:25.441Z,36.19
2018-06-19T07:26:54.799Z,37.42
2018-06-19T07:29:24.174Z,36.53
2018-06-19T07:31:53.647Z,38.30
2018-06-19T07:34:23.032Z,37.12
2018-06-19T07:36:52.462Z,37.09
2018-06-19T07:39:21.808Z,37.08
2018-06-19T07:41:51.303Z,35.55
2018-06-19T07:44:20.624Z,35.29
2018-06-19T07:46:50.056Z,35.42
2018-06-19T07:49:19.473Z,35.38
2018-06-19T07:51:48.936Z,35.06
2018-06-19T07:54:18.304Z,34.46
2018-06-19T07:56:47.686Z,34.94
2018-06-19T07:59:17.113Z,34.60
2018-06-19T08:01:46.748Z,34.45
2018-06-19T08:04:16.201Z,34.77
2018-06-19T08:06:45.604Z,35.16
2018-06-19T08:09:15.003Z,35.63
2018-06-19T08:11:44.435Z,35.47
2018-06-19T08:14:13.820Z,35.30
2018-06-19T08:16:43.310Z,36.72
2018-06-19T08:19:12.632Z,36.64
2018-06-19T08:21:42.094Z,36.62
2018-06-19T08:24:11.496Z,35.85
2018-06-19T08:26:40.924Z,36.07
2018-06-19T08:29:10.391Z,36.67
2018-06-19T08:31:39.951Z,36.51
2018-06-19T08:34:09.419Z,34.94
2018-06-19T08:36:38.822Z,36.64
2018-06-19T08:39:11.522Z,35.70
2018-06-19T08:41:41.518Z,35.59
2018-06-19T08:44:10.979Z,35.18
2018-06-19T08:46:41.702Z,34.75
2018-06-19T08:49:12.426Z,33.43
2018-06-19T08:51:41.874Z,34.51
2018-06-19T08:54:11.367Z,35.18
2018-06-19T08:56:40.816Z,33.95
2018-06-19T08:59:10.213Z,33.86
2018-06-19T09:01:39.620Z,33.33
2018-06-19T09:04:09.013Z,33.79
2018-06-19T09:06:38.430Z,32.62
2018-06-19T09:09:10.349Z,33.05
2018-06-19T09:11:39.890Z,33.93
2018-06-19T09:14:09.309Z,34.05
2018-06-19T09:16:38.672Z,33.97
2018-06-19T09:19:08.091Z,34.17
2018-06-19T09:21:37.537Z,33.67
2018-06-19T09:24:06.987Z,34.12
2018-06-19T09:26:36.466Z,33.15
2018-06-19T09:29:05.989Z,34.17
2018-06-19T09:31:35.339Z,33.77
2018-06-19T09:34:04.945Z,33.97
2018-06-19T09:36:34.385Z,33.72
2018-06-19T09:39:04.436Z,34.34
2018-06-19T09:41:33.876Z,35.16
2018-06-19T09:44:03.396Z,35.43
2018-06-19T09:46:32.791Z,35.08
2018-06-19T09:49:02.233Z,34.95
2018-06-19T09:51:32.022Z,35.62
2018-06-19T09:54:01.484Z,35.82
2018-06-19T09:56:30.921Z,36.09
2018-06-19T09:59:00.363Z,37.20
2018-06-19T10:01:29.812Z,37.42
2018-06-19T10:03:59.231Z,37.55
2018-06-19T10:06:29.000Z,37.84
2018-06-19T10:08:58.398Z,37.63
2018-06-19T10:11:27.792Z,37.95
2018-06-19T10:13:57.415Z,39.32
2018-06-19T10:16:26.845Z,39.27
2018-06-19T10:18:56.202Z,38.82
2018-06-19T10:21:25.608Z,38.55
2018-06-19T10:23:55.024Z,39.26
2018-06-19T10:26:24.412Z,38.45
2018-06-19T10:28:53.824Z,37.72
2018-06-19T10:31:23.199Z,38.82
2018-06-19T10:33:52.749Z,38.24
2018-06-19T10:36:21.855Z,37.80
2018-06-19T10:38:51.212Z,37.78
2018-06-19T10:41:27.201Z,37.44
2018-06-19T10:43:56.590Z,37.14
2018-06-19T10:46:25.997Z,38.35
2018-06-19T10:48:55.805Z,36.27
2018-06-19T10:51:25.221Z,36.67
2018-06-19T10:53:54.301Z,37.50
2018-06-19T10:56:23.703Z,38.79
2018-06-19T10:58:53.056Z,38.25
2018-06-19T11:01:22.469Z,38.57
2018-06-19T11:03:51.892Z,38.71
2018-06-19T11:06:21.448Z,38.05
2018-06-19T11:08:50.772Z,38.65
2018-06-19T11:11:20.261Z,38.71
2018-06-19T11:13:49.648Z,39.46
2018-06-19T11:16:19.187Z,38.08
2018-06-19T11:18:48.557Z,39.65
2018-06-19T11:21:18.309Z,39.19
2018-06-19T11:23:48.535Z,38.37
2018-06-19T11:26:18.394Z,38.33
2018-06-19T11:28:48.235Z,38.19
2018-06-19T11:31:18.383Z,37.48
2018-06-19T11:33:48.409Z,38.13
2018-06-19T11:36:17.932Z,38.93
2018-06-19T11:38:47.338Z,37.91
2018-06-19T11:41:16.853Z,37.96
2018-06-19T11:43:46.375Z,36.75
2018-06-19T11:46:15.768Z,37.22
2018-06-19T11:48:45.211Z,36.90
2018-06-19T11:51:14.596Z,37.49
2018-06-19T11:53:44.061Z,37.91
2018-06-19T11:56:13.490Z,38.54
2018-06-19T11:58:42.834Z,40.21
2018-06-19T12:01:12.296Z,38.80
2018-06-19T12:03:41.723Z,39.41
2018-06-19T12:06:11.094Z,39.23
2018-06-19T12:08:40.460Z,39.11
2018-06-19T12:11:09.881Z,38.30
2018-06-19T12:13:39.360Z,39.32
2018-06-19T12:16:08.772Z,38.81
2018-06-19T12:18:38.173Z,38.10
2018-06-19T12:21:07.596Z,39.32
2018-06-19T12:23:36.973Z,39.38
2018-06-19T12:26:06.505Z,39.20
2018-06-19T12:28:35.953Z,38.54
2018-06-19T12:31:05.426Z,39.80
2018-06-19T12:33:34.808Z,40.64
2018-06-19T12:36:04.298Z,39.27
2018-06-19T12:38:33.838Z,39.37
2018-06-19T12:41:03.215Z,38.62
2018-06-19T12:43:32.637Z,38.43
2018-06-19T12:46:02.181Z,38.06
2018-06-19T12:48:31.601Z,38.10
2018-06-19T12:52:17.824Z,38.41
2018-06-19T12:56:35.537Z,38.60
2018-06-19T12:59:04.936Z,39.20
2018-06-19T13:01:34.392Z,39.33
2018-06-19T13:05:20.754Z,40.40
2018-06-19T13:07:50.129Z,40.84
2018-06-19T13:10:19.543Z,41.44
2018-06-19T13:13:32.475Z,41.01
2018-06-19T13:16:01.872Z,41.35
2018-06-19T13:18:48.343Z,40.66
2018-06-19T13:21:17.755Z,40.96
2018-06-19T13:23:47.177Z,40.15
2018-06-19T13:26:16.641Z,39.57
2018-06-19T13:30:08.670Z,40.22
2018-06-19T13:32:38.845Z,40.39
2018-06-19T13:35:08.046Z,39.51
2018-06-19T13:37:37.518Z,39.49
2018-06-19T13:41:23.249Z,39.37
2018-06-19T13:44:12.358Z,40.92
2018-06-19T13:46:42.244Z,41.23
2018-06-19T13:49:11.651Z,41.33
2018-06-19T13:51:41.035Z,40.83
2018-06-19T13:54:10.483Z,40.95
2018-06-19T13:57:33.567Z,39.82
2018-06-19T14:00:05.154Z,39.33
2018-06-19T14:02:34.620Z,39.61
2018-06-19T14:05:04.448Z,40.57
2018-06-19T14:07:39.464Z,41.18
2018-06-19T14:10:31.679Z,42.21
2018-06-19T14:13:02.051Z,41.54
2018-06-19T14:15:39.092Z,41.75
2018-06-19T14:18:09.074Z,40.84
2018-06-19T14:20:39.016Z,40.62
2018-06-19T14:23:08.461Z,40.01
2018-06-19T14:25:37.951Z,40.79
2018-06-19T14:28:07.382Z,40.98
2018-06-19T14:30:36.765Z,40.98
2018-06-19T14:33:06.328Z,42.22
2018-06-19T14:35:35.794Z,42.33
2018-06-19T14:38:05.176Z,43.03
2018-06-19T14:40:34.668Z,42.23
2018-06-19T14:43:04.066Z,40.74
2018-06-19T14:45:33.515Z,41.35
2018-06-19T14:48:02.961Z,41.63
2018-06-19T14:50:32.356Z,42.07
2018-06-19T14:53:01.775Z,42.08
2018-06-19T14:55:31.192Z,41.66
2018-06-19T14:58:00.574Z,42.18
2018-06-19T15:00:30.071Z,42.17
2018-06-19T15:02:59.684Z,42.14
2018-06-19T15:05:29.100Z,42.53
2018-06-19T15:07:58.515Z,42.09
2018-06-19T15:10:27.916Z,42.59
2018-06-19T15:12:57.402Z,43.39
2018-06-19T15:15:26.753Z,42.98
2018-06-19T15:17:56.207Z,41.72
2018-06-19T15:20:25.602Z,40.98
2018-06-19T15:22:55.043Z,41.07
2018-06-19T15:25:24.555Z,41.77
2018-06-19T15:27:54.007Z,42.29
2018-06-19T15:30:23.357Z,41.95
2018-06-19T15:32:52.760Z,42.76
2018-06-19T15:35:22.181Z,42.33
2018-06-19T15:37:51.590Z,43.20
2018-06-19T15:40:21.044Z,42.49
2018-06-19T15:42:50.500Z,42.33
2018-06-19T15:45:19.948Z,42.23
2018-06-19T15:47:49.317Z,42.57
2018-06-19T15:50:18.737Z,43.33
2018-06-19T15:52:48.196Z,42.99
2018-06-19T15:55:17.643Z,44.25
2018-06-19T15:57:47.016Z,44.22
2018-06-19T16:00:16.391Z,43.96
2018-06-19T16:02:45.844Z,44.05
2018-06-19T16:05:15.244Z,44.64
2018-06-19T16:07:49.804Z,44.28
2018-06-19T16:10:19.276Z,44.62
2018-06-19T16:12:48.751Z,44.68
2018-06-19T16:15:18.124Z,44.50
2018-06-19T16:17:47.631Z,44.75
2018-06-19T16:20:17.083Z,44.84
2018-06-19T16:22:46.700Z,45.03
2018-06-19T16:25:16.263Z,45.05
2018-06-19T16:27:45.723Z,45.50
2018-06-19T16:30:15.124Z,44.89
2018-06-19T16:32:44.599Z,44.64
2018-06-19T16:35:14.055Z,44.38
2018-06-19T16:37:43.540Z,44.83
2018-06-19T16:40:12.936Z,45.25
2018-06-19T16:42:42.521Z,45.27
2018-06-19T16:45:11.969Z,44.88
2018-06-19T16:47:41.439Z,44.53
2018-06-19T16:50:10.901Z,44.74
2018-06-19T16:52:40.353Z,45.35
2018-06-19T16:55:09.901Z,45.47
2018-06-19T16:57:39.372Z,44.77
2018-06-19T17:00:08.849Z,44.22
2018-06-19T17:02:38.629Z,44.34
2018-06-19T17:05:08.105Z,44.11
2018-06-19T17:07:40.934Z,44.06
2018-06-19T17:10:10.787Z,44.53
2018-06-19T17:12:40.299Z,44.79
2018-06-19T17:15:09.763Z,45.09
2018-06-19T17:17:39.343Z,45.54
2018-06-19T17:20:08.963Z,44.98
2018-06-19T17:22:38.443Z,45.39
2018-06-19T17:25:07.955Z,44.64
2018-06-19T17:27:37.390Z,45.10
2018-06-19T17:30:06.587Z,45.06
2018-06-19T17:32:35.990Z,45.20
2018-06-19T17:35:05.385Z,44.43
2018-06-19T17:37:34.913Z,44.94
2018-06-19T17:40:04.354Z,44.79
2018-06-19T17:42:33.715Z,44.94
2018-06-19T17:45:03.239Z,44.38
2018-06-19T17:47:32.665Z,44.08
2018-06-19T17:50:02.095Z,44.37
2018-06-19T17:52:31.586Z,45.13
2018-06-19T17:55:01.189Z,45.44
2018-06-19T17:57:30.695Z,45.62
2018-06-19T18:00:00.150Z,45.90
2018-06-19T18:02:29.552Z,45.88
2018-06-19T18:04:58.914Z,45.95
2018-06-19T18:07:28.357Z,45.99
2018-06-19T18:09:57.812Z,45.92
2018-06-19T18:12:27.238Z,46.45
2018-06-19T18:14:56.611Z,47.39
2018-06-19T18:17:26.094Z,47.57
2018-06-19T18:19:55.452Z,47.26
2018-06-19T18:22:24.840Z,47.04
2018-06-19T18:24:54.289Z,47.07
2018-06-19T18:27:23.713Z,47.91
2018-06-19T18:29:53.131Z,47.72
2018-06-19T18:32:22.616Z,47.56
2018-06-19T18:34:52.027Z,48.08
2018-06-19T18:37:21.470Z,48.41
2018-06-19T18:39:50.926Z,48.56
2018-06-19T18:42:20.384Z,48.84
2018-06-19T18:44:49.885Z,49.20
2018-06-19T18:47:19.314Z,49.56
2018-06-19T18:49:48.751Z,49.48
2018-06-19T18:52:18.113Z,49.77
2018-06-19T18:54:47.613Z,50.21
2018-06-19T18:57:17.067Z,50.43
2018-06-19T18:59:46.455Z,50.34
2018-06-19T19:02:15.995Z,50.74
2018-06-19T19:04:45.446Z,50.58
2018-06-19T19:07:14.947Z,50.89
2018-06-19T19:09:49.596Z,51.13
2018-06-19T19:12:19.035Z,51.41
2018-06-19T19:14:53.616Z,51.90
2018-06-19T19:17:28.198Z,51.91
2018-06-19T19:19:57.624Z,51.94
2018-06-19T19:22:27.188Z,52.60
2018-06-19T19:24:56.644Z,52.69
2018-06-19T19:27:31.353Z,52.89
2018-06-19T19:30:00.769Z,53.09
2018-06-19T19:32:30.272Z,53.61
2018-06-19T19:34:59.689Z,53.50
2018-06-19T19:37:34.431Z,53.84
2018-06-19T19:40:03.870Z,54.09
2018-06-19T19:42:33.282Z,53.91
2018-06-19T19:45:02.756Z,53.95
2018-06-19T19:47:37.496Z,54.39
2018-06-19T19:50:06.933Z,54.48
2018-06-19T19:52:36.419Z,54.56
2018-06-19T19:55:06.042Z,55.29
2018-06-19T19:57:40.728Z,55.52
2018-06-19T20:00:11.968Z,55.57
2018-06-19T20:02:41.501Z,55.70
2018-06-19T20:05:11.031Z,56.06
2018-06-19T20:07:40.977Z,56.17
2018-06-19T20:10:10.420Z,56.51
2018-06-19T20:12:39.872Z,56.93
2018-06-19T20:15:09.310Z,57.01
2018-06-19T20:17:38.755Z,56.89
2018-06-19T20:20:10.382Z,57.05
2018-06-19T20:22:40.600Z,57.42
2018-06-19T20:25:10.699Z,57.63
2018-06-19T20:27:40.263Z,57.21
2018-06-19T20:30:10.301Z,57.78
2018-06-19T20:32:40.009Z,57.35
2018-06-19T20:38:06.799Z,57.83
2018-06-19T20:40:36.253Z,58.21
2018-06-19T20:43:05.633Z,57.97
2018-06-19T20:45:35.119Z,57.68
2018-06-19T20:48:04.600Z,57.95
2018-06-19T20:50:33.993Z,58.11
2018-06-19T20:53:03.398Z,58.33
2018-06-19T20:55:33.161Z,58.38
2018-06-19T20:58:02.590Z,58.57
2018-06-19T21:00:32.002Z,58.48
2018-06-19T21:03:01.501Z,58.25
2018-06-19T21:05:31.032Z,58.47
2018-06-19T21:08:00.485Z,58.76
2018-06-19T21:10:29.957Z,58.67
2018-06-19T21:12:59.410Z,58.75
2018-06-19T21:15:28.998Z,59.24
2018-06-19T21:17:58.541Z,59.18
2018-06-19T21:20:28.021Z,59.67
2018-06-19T21:22:57.557Z,59.82
2018-06-19T21:25:26.968Z,59.58
2018-06-19T21:27:56.399Z,59.66
2018-06-19T21:30:25.838Z,59.67
2018-06-19T21:32:55.279Z,60.03
2018-06-19T21:35:24.704Z,60.16
2018-06-19T21:37:54.151Z,60.08
2018-06-19T21:40:23.606Z,60.38
2018-06-19T21:42:53.012Z,60.22
2018-06-19T21:45:22.592Z,60.26
2018-06-19T21:47:52.104Z,60.50
2018-06-19T21:50:21.562Z,60.63
2018-06-19T21:52:51.143Z,60.71
2018-06-19T21:55:20.900Z,60.87
2018-06-19T21:57:50.363Z,61.21
2018-06-19T22:00:19.786Z,61.39
2018-06-19T22:02:49.254Z,60.71
2018-06-19T22:05:18.735Z,60.90
2018-06-19T22:07:48.189Z,61.10
2018-06-19T22:10:17.633Z,60.89
2018-06-19T22:12:47.083Z,61.16
2018-06-19T22:15:16.527Z,61.29
2018-06-19T22:17:46.052Z,61.31
2018-06-19T22:20:15.476Z,61.75
2018-06-19T22:22:44.975Z,61.85
2018-06-19T22:25:14.392Z,61.76
2018-06-19T22:27:43.826Z,61.79
2018-06-19T22:30:13.306Z,62.12
2018-06-19T22:32:42.777Z,62.43
2018-06-19T22:35:12.212Z,62.21
2018-06-19T22:37:41.705Z,62.62
2018-06-19T22:40:11.137Z,63.34
2018-06-19T22:42:40.624Z,63.38
2018-06-19T22:45:09.944Z,63.54
2018-06-19T22:47:39.744Z,63.22
2018-06-19T22:50:09.217Z,63.01
2018-06-19T22:52:38.651Z,63.07
2018-06-19T22:55:08.243Z,62.66
2018-06-19T22:57:37.744Z,62.67
2018-06-19T23:00:07.290Z,62.37
2018-06-19T23:02:36.719Z,62.25
2018-06-19T23:05:06.326Z,61.74
2018-06-19T23:07:35.741Z,61.53
2018-06-19T23:10:05.568Z,62.08
2018-06-19T23:12:35.107Z,61.90
2018-06-19T23:15:04.746Z,61.87
2018-06-19T23:17:34.364Z,61.86
2018-06-19T23:20:03.920Z,61.94
2018-06-19T23:22:33.506Z,61.86
2018-06-19T23:25:03.089Z,62.26
2018-06-19T23:27:32.699Z,62.46
2018-06-19T23:30:02.191Z,62.19
2018-06-19T23:32:31.803Z,62.33
2018-06-19T23:35:01.389Z,62.68
2018-06-19T23:37:30.852Z,62.49
2018-06-19T23:40:00.245Z,61.94
2018-06-19T23:42:29.630Z,62.69
2018-06-19T23:44:59.196Z,62.72
2018-06-19T23:47:28.598Z,62.29
2018-06-19T23:49:58.123Z,62.45
2018-06-19T23:52:27.681Z,62.07
2018-06-19T23:54:57.180Z,61.82
2018-06-19T23:57:26.668Z,62.10
2018-06-19T23:59:56.202Z,62.15
